Time;durP1;ratioP1;P1;durP2;ratioP2;P2;SDS_P1;SDS_P2;PMS_P1;PMS_P2;Temp;Humidity;BMP_temperature;BMP_pressure;BME280_temperature;BME280_humidity;BME280_pressure;Samples;Min_cycle;Max_cycle;Signal;HPM_P1;HPM_P2
2022/09/08 00:01:37;;;;;;;11.40;9.82;;;18.50;99.90;;;;;;5010228;28;20491;-37
2022/09/08 00:04:04;;;;;;;12.93;11.57;;;18.50;99.90;;;;;;5010785;28;20046;-37
2022/09/08 00:06:32;;;;;;;12.25;10.95;;;18.50;99.90;;;;;;5009494;28;20169;-38
2022/09/08 00:08:58;;;;;;;11.32;9.25;;;18.50;99.90;;;;;;5009833;28;20080;-36
2022/09/08 00:11:29;;;;;;;11.60;10.13;;;18.50;99.90;;;;;;5009910;28;20471;-37
2022/09/08 00:14:02;;;;;;;13.38;11.88;;;18.50;99.90;;;;;;5007334;28;20103;-37
2022/09/08 00:16:27;;;;;;;;;;;18.50;99.90;;;;;;5006759;28;20137;-36
2022/09/08 00:18:53;;;;;;;15.10;13.50;;;18.40;99.90;;;;;;5008303;28;20434;-37
2022/09/08 00:21:21;;;;;;;14.73;11.85;;;18.40;99.90;;;;;;5008897;28;20042;-37
2022/09/08 00:23:47;;;;;;;16.27;12.73;;;18.40;99.90;;;;;;5007622;28;20495;-36
2022/09/08 00:26:12;;;;;;;14.52;12.85;;;18.40;99.90;;;;;;5009480;28;20447;-37
2022/09/08 00:28:38;;;;;;;17.83;13.88;;;18.50;99.90;;;;;;5007301;28;20080;-36
2022/09/08 00:31:04;;;;;;;15.35;13.20;;;18.50;99.90;;;;;;5009339;28;20426;-36
2022/09/08 00:33:32;;;;;;;12.75;11.07;;;18.50;99.90;;;;;;5007846;28;20042;-37
2022/09/08 00:35:58;;;;;;;16.73;14.40;;;18.50;99.90;;;;;;5007376;28;20084;-35
2022/09/08 00:38:24;;;;;;;15.98;13.00;;;18.50;99.90;;;;;;5007522;28;20046;-37
2022/09/08 00:40:52;;;;;;;14.88;13.27;;;18.50;99.90;;;;;;5009028;28;20050;-38
2022/09/08 00:43:41;;;;;;;14.90;13.32;;;18.50;99.90;;;;;;5008216;28;20380;-36
2022/09/08 00:46:14;;;;;;;15.55;13.95;;;18.50;99.90;;;;;;4990340;28;20030;-36
2022/09/08 00:49:04;;;;;;;17.85;14.63;;;18.50;99.90;;;;;;5006372;28;20070;-41
2022/09/08 00:51:31;;;;;;;14.65;13.13;;;18.50;99.90;;;;;;4994564;28;20064;-36
2022/09/08 00:54:00;;;;;;;16.55;13.85;;;18.50;99.90;;;;;;5005230;28;20041;-37
2022/09/08 00:56:28;;;;;;;19.27;16.67;;;18.50;99.90;;;;;;4989480;28;20038;-37
2022/09/08 00:58:54;;;;;;;17.42;15.55;;;18.50;99.90;;;;;;5007845;28;20484;-38
2022/09/08 01:01:20;;;;;;;14.32;12.82;;;18.40;99.90;;;;;;5007971;28;20038;-36
2022/09/08 01:03:46;;;;;;;18.65;16.73;;;18.40;99.90;;;;;;5006284;28;20087;-35
2022/09/08 01:12:46;;;;;;;17.30;14.60;;;18.40;99.90;;;;;;5002779;28;20480;-35
2022/09/08 01:15:24;;;;;;;17.20;14.30;;;18.40;99.90;;;;;;5006816;28;20037;-36
2022/09/08 01:17:54;;;;;;;16.52;12.68;;;18.40;99.90;;;;;;5005446;28;20128;-36
2022/09/08 01:20:24;;;;;;;19.38;16.02;;;18.40;99.90;;;;;;5008644;28;20519;-36
2022/09/08 01:23:28;;;;;;;16.10;14.15;;;18.40;99.90;;;;;;5006675;28;20049;-36
2022/09/08 01:26:15;;;;;;;19.15;15.15;;;18.40;99.90;;;;;;4978940;28;20060;-35
2022/09/08 01:29:00;;;;;;;14.80;13.02;;;18.40;99.90;;;;;;5005582;28;20030;-36
2022/09/08 01:31:28;;;;;;;20.27;14.90;;;18.40;99.90;;;;;;5008204;28;20038;-36
2022/09/08 01:33:54;;;;;;;19.60;17.38;;;18.40;99.90;;;;;;5008891;28;20042;-36
2022/09/08 01:36:19;;;;;;;21.60;16.60;;;18.40;99.90;;;;;;5008345;28;20056;-36
2022/09/08 01:38:48;;;;;;;15.93;14.23;;;18.40;99.90;;;;;;5004015;28;20053;-36
2022/09/08 01:41:13;;;;;;;19.33;17.23;;;18.40;99.90;;;;;;5005538;28;20361;-36
2022/09/08 01:43:40;;;;;;;21.75;17.85;;;18.40;99.90;;;;;;5005463;28;20070;-35
2022/09/08 01:46:05;;;;;;;16.67;14.93;;;18.40;99.90;;;;;;5007472;28;20510;-43
2022/09/08 01:48:31;;;;;;;20.33;17.60;;;18.40;99.90;;;;;;5007096;28;20052;-36
2022/09/08 01:51:01;;;;;;;19.42;15.98;;;18.40;99.90;;;;;;5006499;28;20041;-36
2022/09/08 01:53:28;;;;;;;18.50;15.60;;;18.40;99.90;;;;;;5005700;28;20437;-36
2022/09/08 01:55:54;;;;;;;21.60;17.17;;;18.30;99.90;;;;;;5007087;28;20120;-36
2022/09/08 02:00:56;;;;;;;23.63;17.77;;;18.30;99.90;;;;;;5248575;23;20056;-35
2022/09/08 02:03:22;;;;;;;19.10;17.10;;;18.30;99.90;;;;;;5005880;28;20528;-35
2022/09/08 02:05:48;;;;;;;19.27;16.83;;;18.30;99.90;;;;;;5006409;28;20038;-35
2022/09/08 02:08:13;;;;;;;19.10;17.02;;;18.30;99.90;;;;;;5005501;28;20042;-35
2022/09/08 02:10:39;;;;;;;19.08;17.00;;;18.30;99.90;;;;;;5009599;28;20402;-35
2022/09/08 02:13:05;;;;;;;18.83;16.83;;;18.30;99.90;;;;;;5006730;28;20438;-34
2022/09/08 02:15:31;;;;;;;18.30;15.98;;;18.20;99.90;;;;;;5008527;28;20065;-35
2022/09/08 02:17:59;;;;;;;20.92;17.67;;;18.20;99.90;;;;;;5003568;28;20123;-35
2022/09/08 02:20:26;;;;;;;19.60;17.50;;;18.30;99.90;;;;;;5004950;28;20073;-35
2022/09/08 02:22:55;;;;;;;22.13;18.10;;;18.30;99.90;;;;;;5002207;28;20433;-35
2022/09/08 02:25:21;;;;;;;19.58;16.98;;;18.30;99.90;;;;;;4985637;28;20133;-36
2022/09/08 02:27:50;;;;;;;20.27;17.00;;;18.30;99.90;;;;;;5005673;28;20061;-37
2022/09/08 02:30:16;;;;;;;19.45;16.63;;;18.30;99.90;;;;;;5003470;28;20449;-36
2022/09/08 02:32:41;;;;;;;21.63;19.30;;;18.30;99.90;;;;;;5004538;28;20132;-36
2022/09/08 02:35:07;;;;;;;18.95;16.83;;;18.30;99.90;;;;;;5005646;28;20061;-36
2022/09/08 02:37:33;;;;;;;17.15;15.00;;;18.30;99.90;;;;;;5002597;28;20056;-38
2022/09/08 02:39:59;;;;;;;18.23;15.93;;;18.30;99.90;;;;;;4985948;28;20042;-35
2022/09/08 02:42:24;;;;;;;16.08;14.35;;;18.30;99.90;;;;;;5005423;28;20046;-36
2022/09/08 02:44:50;;;;;;;14.77;13.02;;;18.40;99.90;;;;;;5003544;28;20034;-36
2022/09/08 02:47:16;;;;;;;14.63;12.65;;;18.40;99.90;;;;;;5004716;28;20084;-36
2022/09/08 02:49:41;;;;;;;15.00;13.25;;;18.40;99.90;;;;;;5005586;28;20517;-37
2022/09/08 02:52:08;;;;;;;15.93;13.15;;;18.40;99.90;;;;;;5006121;28;20042;-36
2022/09/08 02:54:34;;;;;;;16.42;14.55;;;18.40;99.90;;;;;;5001847;28;20858;-36
2022/09/08 02:57:00;;;;;;;19.23;16.65;;;18.40;99.90;;;;;;5008944;28;20046;-38
2022/09/08 02:59:26;;;;;;;24.23;20.30;;;18.40;99.90;;;;;;5007959;28;20076;-36
2022/09/08 03:01:52;;;;;;;23.48;20.58;;;18.40;99.90;;;;;;5009825;28;20058;-36
2022/09/08 03:04:18;;;;;;;23.05;19.38;;;18.30;99.90;;;;;;5010018;28;20121;-37
2022/09/08 03:06:44;;;;;;;23.92;20.90;;;18.20;99.90;;;;;;4992603;28;20582;-37
2022/09/08 03:09:09;;;;;;;21.00;18.35;;;18.20;99.90;;;;;;5007312;28;20077;-37
2022/09/08 03:11:35;;;;;;;27.40;21.92;;;18.10;99.90;;;;;;5010810;28;20060;-37
2022/09/08 03:14:01;;;;;;;33.65;22.33;;;18.00;99.90;;;;;;4985529;28;20045;-38
2022/09/08 03:16:28;;;;;;;25.77;18.65;;;18.00;99.90;;;;;;5003496;28;20049;-38
2022/09/08 03:18:54;;;;;;;19.08;14.32;;;17.90;99.90;;;;;;5011706;28;20104;-37
2022/09/08 03:21:20;;;;;;;22.48;16.30;;;17.80;99.90;;;;;;5011332;28;20541;-38
2022/09/08 03:23:46;;;;;;;18.13;14.02;;;17.70;99.90;;;;;;5007919;28;20045;-37
2022/09/08 03:26:17;;;;;;;14.60;12.25;;;17.50;99.90;;;;;;5009607;28;20034;-38
2022/09/08 03:28:44;;;;;;;20.23;13.10;;;17.50;99.90;;;;;;5007364;28;20080;-37
2022/09/08 03:31:13;;;;;;;14.52;11.00;;;17.50;99.90;;;;;;5010880;28;20085;-37
2022/09/08 03:33:40;;;;;;;15.43;11.90;;;17.50;99.90;;;;;;5009536;28;20080;-37
2022/09/08 03:36:07;;;;;;;15.85;11.40;;;17.60;99.90;;;;;;4992886;28;20081;-37
2022/09/08 03:38:34;;;;;;;13.38;7.78;;;17.60;99.90;;;;;;5009293;28;20038;-38
2022/09/08 03:41:00;;;;;;;12.02;8.32;;;17.60;99.90;;;;;;4993092;28;20092;-38
2022/09/08 03:43:26;;;;;;;9.35;7.03;;;17.60;99.90;;;;;;5009457;28;20061;-38
2022/09/08 03:45:52;;;;;;;8.85;6.45;;;17.60;99.90;;;;;;5008541;28;20491;-38
2022/09/08 03:48:17;;;;;;;9.38;6.75;;;17.60;99.90;;;;;;5006868;28;20056;-37
2022/09/08 03:50:43;;;;;;;10.45;6.82;;;17.60;99.90;;;;;;5008604;28;20088;-37
2022/09/08 03:53:10;;;;;;;10.73;7.90;;;17.60;99.90;;;;;;5009161;28;20080;-37
2022/09/08 03:55:39;;;;;;;9.27;6.68;;;17.70;99.90;;;;;;5009691;28;20073;-37
2022/09/08 03:58:05;;;;;;;7.70;6.13;;;17.70;99.90;;;;;;5008386;28;20108;-38
2022/09/08 04:00:31;;;;;;;8.90;6.00;;;17.70;99.90;;;;;;5008384;28;20475;-38
2022/09/08 04:02:56;;;;;;;8.23;5.68;;;17.80;99.90;;;;;;5010450;28;20092;-37
2022/09/08 04:05:22;;;;;;;11.68;6.80;;;17.80;99.90;;;;;;5009687;28;20034;-38
2022/09/08 04:07:48;;;;;;;9.65;6.93;;;17.80;99.90;;;;;;5007084;28;20121;-40
2022/09/08 04:10:15;;;;;;;11.80;6.55;;;17.70;99.90;;;;;;5009127;28;20343;-37
2022/09/08 04:12:41;;;;;;;10.73;7.53;;;17.70;99.90;;;;;;5009844;28;20492;-37
2022/09/08 04:15:09;;;;;;;13.32;7.38;;;17.70;99.90;;;;;;5003425;28;20124;-38
2022/09/08 04:17:35;;;;;;;11.90;5.82;;;17.60;99.90;;;;;;5007454;28;20072;-36
2022/09/08 04:20:01;;;;;;;13.65;7.55;;;17.50;99.90;;;;;;5009224;28;20490;-37
2022/09/08 04:22:27;;;;;;;9.65;5.97;;;17.50;99.90;;;;;;5007825;28;20060;-37
2022/09/08 04:24:53;;;;;;;12.88;6.18;;;17.40;99.90;;;;;;5007442;28;20491;-37
2022/09/08 04:27:19;;;;;;;9.57;5.18;;;17.40;99.90;;;;;;5007435;28;20113;-36
2022/09/08 04:29:45;;;;;;;9.80;5.50;;;17.40;99.90;;;;;;5009216;28;20487;-37
2022/09/08 04:32:11;;;;;;;8.00;5.43;;;17.40;99.90;;;;;;4989611;28;20060;-37
2022/09/08 04:34:37;;;;;;;8.85;5.40;;;17.40;99.90;;;;;;5004730;28;20049;-37
2022/09/08 04:37:04;;;;;;;8.18;4.63;;;17.40;99.90;;;;;;5007432;28;20038;-37
2022/09/08 04:39:30;;;;;;;9.20;5.88;;;17.40;99.90;;;;;;5004804;28;20660;-39
2022/09/08 04:41:56;;;;;;;10.70;5.32;;;17.40;99.90;;;;;;5009229;28;20166;-36
2022/09/08 04:44:22;;;;;;;8.65;5.30;;;17.50;99.90;;;;;;4988382;28;20121;-38
2022/09/08 04:46:47;;;;;;;7.80;4.75;;;17.50;99.90;;;;;;5007891;28;20030;-38
2022/09/08 04:49:13;;;;;;;6.82;4.57;;;17.50;99.90;;;;;;5004825;28;20083;-36
2022/09/08 04:51:39;;;;;;;8.82;6.10;;;17.40;99.90;;;;;;5009950;28;20119;-37
2022/09/08 04:54:05;;;;;;;9.45;6.28;;;17.40;99.90;;;;;;5005922;28;20495;-37
2022/09/08 04:56:32;;;;;;;8.60;6.07;;;17.50;99.90;;;;;;5002986;28;20557;-38
2022/09/08 04:59:00;;;;;;;7.97;4.35;;;17.50;99.90;;;;;;5006648;28;20053;-37
2022/09/08 05:01:29;;;;;;;9.70;6.43;;;17.50;99.90;;;;;;5007632;28;20137;-38
2022/09/08 05:03:59;;;;;;;9.70;6.07;;;17.50;99.90;;;;;;5004661;28;20034;-37
2022/09/08 05:06:25;;;;;;;10.90;6.30;;;17.50;99.90;;;;;;5010488;28;20034;-38
2022/09/08 05:08:54;;;;;;;10.10;6.53;;;17.50;99.90;;;;;;5003218;28;20034;-36
2022/09/08 05:11:21;;;;;;;7.65;6.07;;;17.50;99.90;;;;;;5006491;28;20038;-38
2022/09/08 05:13:49;;;;;;;8.20;5.43;;;17.50;99.90;;;;;;5007644;28;20121;-38
2022/09/08 05:16:20;;;;;;;9.13;6.07;;;17.50;99.90;;;;;;5008024;28;20038;-37
2022/09/08 05:18:47;;;;;;;9.03;6.13;;;17.40;99.90;;;;;;5007254;28;20549;-36
2022/09/08 05:21:13;;;;;;;7.80;5.40;;;17.50;99.90;;;;;;5006771;28;20169;-37
2022/09/08 05:23:39;;;;;;;14.98;7.70;;;17.50;99.90;;;;;;4993744;28;20113;-36
2022/09/08 05:26:07;;;;;;;11.98;8.10;;;17.50;99.90;;;;;;5003523;28;20065;-37
2022/09/08 05:28:36;;;;;;;14.70;9.90;;;17.50;99.90;;;;;;5005670;28;20061;-37
2022/09/08 05:31:03;;;;;;;13.27;9.65;;;17.50;99.90;;;;;;4990346;28;20589;-37
2022/09/08 05:33:30;;;;;;;13.15;10.35;;;17.50;99.90;;;;;;5008460;28;20461;-36
2022/09/08 05:35:56;;;;;;;8.63;7.05;;;17.50;99.90;;;;;;5007329;28;20088;-36
2022/09/08 05:38:22;;;;;;;13.25;9.20;;;17.50;99.90;;;;;;5002442;28;20033;-35
2022/09/08 05:40:47;;;;;;;16.45;10.18;;;17.60;99.90;;;;;;5008820;28;20049;-35
2022/09/08 05:43:15;;;;;;;12.43;8.98;;;17.60;99.90;;;;;;5001881;28;20042;-36
2022/09/08 05:45:49;;;;;;;12.23;8.82;;;17.60;99.90;;;;;;5004097;28;20095;-38
2022/09/08 05:48:15;;;;;;;11.10;8.65;;;17.60;99.90;;;;;;5004724;28;20042;-36
2022/09/08 05:50:43;;;;;;;9.55;7.50;;;17.70;99.90;;;;;;5002196;28;20054;-36
2022/09/08 05:53:09;;;;;;;14.98;9.88;;;17.70;99.90;;;;;;5003171;28;20045;-37
2022/09/08 05:55:35;;;;;;;12.35;10.23;;;17.70;99.90;;;;;;5001170;28;20509;-36
2022/09/08 05:58:01;;;;;;;13.88;9.32;;;17.70;99.90;;;;;;4999384;28;20033;-37
2022/09/08 06:00:27;;;;;;;14.05;11.15;;;17.80;99.90;;;;;;4997381;28;20038;-41
2022/09/08 06:02:53;;;;;;;14.55;11.55;;;17.80;99.90;;;;;;5003354;28;20566;-36
2022/09/08 06:05:20;;;;;;;13.00;9.63;;;17.80;99.90;;;;;;4988634;28;20069;-36
2022/09/08 06:07:46;;;;;;;17.67;13.07;;;17.80;99.90;;;;;;5006712;28;20045;-36
2022/09/08 06:10:12;;;;;;;13.10;10.00;;;17.80;99.90;;;;;;5003981;28;20034;-36
2022/09/08 06:12:38;;;;;;;14.10;11.40;;;17.80;99.90;;;;;;4994419;28;20502;-37
2022/09/08 06:15:05;;;;;;;16.42;12.65;;;17.80;99.90;;;;;;5003537;28;20072;-37
2022/09/08 06:17:31;;;;;;;13.10;8.35;;;17.80;99.90;;;;;;4999784;28;20529;-38
2022/09/08 06:19:57;;;;;;;9.55;7.28;;;17.70;99.90;;;;;;5008304;28;20085;-37
2022/09/08 06:22:23;;;;;;;11.50;6.63;;;17.60;99.90;;;;;;5003747;28;20038;-35
2022/09/08 06:24:49;;;;;;;9.73;7.50;;;17.40;99.90;;;;;;4998225;28;20042;-36
2022/09/08 06:27:33;;;;;;;12.07;7.45;;;17.30;99.90;;;;;;5002510;28;20084;-36
2022/09/08 06:30:15;;;;;;;11.23;7.32;;;17.20;99.90;;;;;;5003777;28;20042;-37
2022/09/08 06:32:48;;;;;;;11.73;7.80;;;17.20;99.90;;;;;;4998134;28;20096;-37
2022/09/08 06:35:49;;;;;;;9.23;6.13;;;17.20;99.90;;;;;;5003172;28;20042;-37
2022/09/08 06:38:42;;;;;;;9.50;5.15;;;17.20;99.90;;;;;;4941267;28;20047;-38
2022/09/08 06:41:28;;;;;;;8.55;4.40;;;17.20;99.90;;;;;;5008735;28;20065;-38
2022/09/08 06:44:08;;;;;;;6.32;3.72;;;17.20;99.90;;;;;;4993707;28;20031;-37
2022/09/08 06:46:39;;;;;;;6.32;3.42;;;17.20;99.90;;;;;;4990104;28;20707;-37
2022/09/08 06:49:05;;;;;;;6.05;3.10;;;17.20;99.90;;;;;;5011380;28;20037;-37
2022/09/08 06:51:33;;;;;;;6.15;2.85;;;17.10;99.90;;;;;;4972480;28;20391;-37
2022/09/08 06:54:23;;;;;;;4.72;2.67;;;17.10;99.90;;;;;;5006091;28;20052;-37
2022/09/08 06:57:14;;;;;;;6.00;2.70;;;17.00;99.90;;;;;;5006984;28;20050;-36
2022/09/08 06:59:53;;;;;;;7.70;2.67;;;17.00;99.90;;;;;;4995129;28;20038;-38
2022/09/08 07:02:44;;;;;;;7.00;2.15;;;17.00;99.90;;;;;;5006057;28;20081;-37
2022/09/08 07:05:24;;;;;;;7.10;2.63;;;17.00;99.90;;;;;;5012890;28;20046;-38
2022/09/08 07:08:11;;;;;;;5.63;2.67;;;17.00;99.90;;;;;;5002637;28;20554;-36
2022/09/08 07:10:47;;;;;;;5.93;2.97;;;17.10;99.90;;;;;;5008640;28;20092;-37
2022/09/08 07:13:35;;;;;;;6.10;2.90;;;17.10;99.90;;;;;;5010811;28;20050;-37
2022/09/08 07:16:20;;;;;;;5.70;2.95;;;17.10;99.90;;;;;;5009657;28;20128;-37
2022/09/08 07:18:54;;;;;;;6.10;2.35;;;17.10;99.90;;;;;;5008871;28;20046;-36
2022/09/08 07:21:44;;;;;;;5.53;2.53;;;17.00;99.90;;;;;;5009357;28;20049;-37
2022/09/08 07:24:14;;;;;;;6.10;2.33;;;17.10;99.90;;;;;;5006270;28;20037;-37
2022/09/08 07:26:48;;;;;;;7.60;2.90;;;17.00;99.90;;;;;;5000466;28;20100;-37
2022/09/08 07:29:26;;;;;;;6.30;2.95;;;17.10;99.90;;;;;;5005019;28;20054;-38
2022/09/08 07:31:53;;;;;;;5.35;2.88;;;17.10;99.90;;;;;;4999213;28;20034;-37
2022/09/08 07:34:25;;;;;;;6.25;2.63;;;17.10;99.90;;;;;;4987125;28;20096;-37
2022/09/08 07:36:54;;;;;;;;;;;17.10;99.90;;;;;;5005499;28;20050;-37
2022/09/08 07:39:38;;;;;;;3.35;1.83;;;17.20;99.90;;;;;;5004496;28;19917;-37
2022/09/08 07:42:05;;;;;;;5.53;3.15;;;17.20;99.90;;;;;;5005452;28;20034;-38
2022/09/08 07:44:33;;;;;;;5.40;3.00;;;17.20;99.90;;;;;;5009097;28;20038;-37
2022/09/08 07:47:22;;;;;;;6.60;3.10;;;17.30;99.90;;;;;;5008524;28;20037;-38
2022/09/08 07:49:50;;;;;;;6.57;3.08;;;17.30;99.90;;;;;;5000346;28;20050;-37
2022/09/08 07:52:44;;;;;;;6.00;2.83;;;17.30;99.90;;;;;;5004986;28;20049;-37
2022/09/08 07:55:20;;;;;;;6.50;3.20;;;17.30;99.90;;;;;;5007997;28;20068;-37
2022/09/08 07:58:04;;;;;;;7.35;3.00;;;17.30;99.90;;;;;;5008412;28;20033;-36
2022/09/08 08:00:51;;;;;;;6.03;2.70;;;17.30;99.90;;;;;;4993781;28;20088;-37
2022/09/08 08:03:20;;;;;;;5.90;2.35;;;17.40;99.90;;;;;;5007057;28;20096;-37
2022/09/08 08:05:58;;;;;;;5.60;2.38;;;17.40;99.90;;;;;;5009081;28;20091;-37
2022/09/08 08:08:47;;;;;;;3.47;1.85;;;17.40;99.90;;;;;;5001576;28;20038;-37
2022/09/08 08:11:29;;;;;;;5.25;2.35;;;17.40;99.90;;;;;;5008957;28;20038;-37
2022/09/08 08:14:25;;;;;;;4.72;2.60;;;17.30;99.90;;;;;;5005255;28;20120;-38
2022/09/08 08:17:00;;;;;;;6.13;2.30;;;17.30;99.90;;;;;;5007054;28;20180;-38
2022/09/08 08:19:53;;;;;;;4.97;2.33;;;17.20;99.90;;;;;;4998266;28;20065;-38
2022/09/08 08:22:59;;;;;;;5.07;2.63;;;17.20;99.90;;;;;;5002604;28;20053;-38
2022/09/08 08:25:28;;;;;;;3.90;2.67;;;17.20;99.90;;;;;;5002679;28;20044;-37
2022/09/08 08:28:17;;;;;;;5.20;2.30;;;17.30;99.90;;;;;;5004242;28;20128;-37
2022/09/08 08:31:10;;;;;;;4.60;2.53;;;17.30;99.90;;;;;;5002456;28;20044;-37
2022/09/08 08:33:42;;;;;;;5.45;2.65;;;17.20;99.90;;;;;;5006696;28;20526;-36
2022/09/08 08:36:18;;;;;;;10.23;3.30;;;17.20;99.90;;;;;;4989684;28;20049;-37
2022/09/08 08:38:49;;;;;;;5.65;2.80;;;17.20;99.90;;;;;;5000644;28;20399;-37
2022/09/08 08:41:53;;;;;;;4.75;2.38;;;17.20;99.90;;;;;;5005318;28;20502;-38
2022/09/08 08:44:42;;;;;;;6.32;2.05;;;17.30;99.90;;;;;;4997545;28;20141;-38
2022/09/08 08:47:23;;;;;;;5.75;2.53;;;17.30;99.90;;;;;;4974017;28;20054;-38
2022/09/08 08:50:00;;;;;;;5.60;2.47;;;17.20;99.90;;;;;;5007452;28;20041;-38
2022/09/08 08:53:03;;;;;;;6.40;2.70;;;17.20;99.90;;;;;;5003343;28;20666;-37
2022/09/08 08:56:07;;;;;;;4.65;2.28;;;17.20;99.90;;;;;;5007372;28;20049;-39
2022/09/08 08:58:54;;;;;;;4.13;2.10;;;17.20;99.90;;;;;;4963367;28;20050;-37
2022/09/08 09:01:37;;;;;;;4.25;2.35;;;17.20;99.90;;;;;;4998226;28;20507;-36
2022/09/08 09:04:41;;;;;;;4.63;2.58;;;17.20;99.90;;;;;;5002364;28;20578;-36
2022/09/08 09:07:43;;;;;;;4.43;2.20;;;17.10;99.90;;;;;;4955541;28;20082;-36
2022/09/08 09:10:57;;;;;;;7.13;2.45;;;17.10;99.90;;;;;;5003599;28;20517;-36
2022/09/08 09:13:44;;;;;;;3.53;1.75;;;17.10;99.90;;;;;;4984976;28;20544;-37
2022/09/08 09:16:28;;;;;;;4.57;2.40;;;17.10;99.90;;;;;;5004517;28;20040;-36
2022/09/08 09:19:12;;;;;;;3.72;1.88;;;17.00;99.90;;;;;;5006793;28;20293;-37
2022/09/08 09:21:56;;;;;;;3.70;1.90;;;17.10;99.90;;;;;;4985002;28;20060;-36
2022/09/08 09:24:43;;;;;;;4.40;2.42;;;17.10;99.90;;;;;;5003916;28;20534;-36
2022/09/08 09:27:16;;;;;;;3.75;2.22;;;17.00;99.90;;;;;;5005618;28;20541;-37
2022/09/08 09:29:42;;;;;;;4.63;2.10;;;17.10;99.90;;;;;;4987566;28;20040;-36
2022/09/08 09:32:29;;;;;;;6.20;2.70;;;17.00;99.90;;;;;;5007433;28;20133;-36
2022/09/08 09:35:29;;;;;;;4.53;2.45;;;17.00;99.90;;;;;;5005105;28;20037;-36
2022/09/08 09:38:21;;;;;;;4.13;2.17;;;17.10;99.90;;;;;;5004792;28;20041;-35
2022/09/08 09:41:11;;;;;;;4.95;2.70;;;17.00;99.90;;;;;;5005838;28;20057;-35
2022/09/08 09:44:14;;;;;;;4.13;2.95;;;17.00;99.90;;;;;;4970195;28;20060;-35
2022/09/08 09:46:59;;;;;;;4.53;2.78;;;17.10;99.90;;;;;;4985518;28;20046;-35
2022/09/08 09:49:42;;;;;;;3.60;2.33;;;17.00;99.90;;;;;;5001908;28;20124;-36
2022/09/08 09:52:45;;;;;;;3.60;2.00;;;17.00;99.90;;;;;;5007681;28;20053;-36
2022/09/08 09:55:27;;;;;;;4.45;2.00;;;17.00;99.90;;;;;;4963702;28;20581;-35
2022/09/08 09:58:30;;;;;;;4.07;1.83;;;17.00;99.90;;;;;;5009006;28;20503;-35
2022/09/08 10:01:34;;;;;;;4.00;1.73;;;17.00;99.90;;;;;;4999714;28;20038;-36
2022/09/08 10:04:13;;;;;;;3.58;2.47;;;17.00;99.90;;;;;;4985080;28;20407;-38
2022/09/08 10:07:13;;;;;;;4.10;2.50;;;17.00;99.90;;;;;;4983005;28;20044;-37
2022/09/08 10:10:06;;;;;;;5.30;2.60;;;17.10;99.90;;;;;;4982982;28;20538;-37
2022/09/08 10:13:14;;;;;;;3.05;1.58;;;17.10;99.90;;;;;;4982938;28;20120;-38
2022/09/08 10:16:09;;;;;;;4.07;1.38;;;17.00;99.90;;;;;;4906608;29;20056;-38
2022/09/08 10:19:09;;;;;;;3.47;1.63;;;17.10;99.90;;;;;;4965287;28;20061;-43
2022/09/08 10:22:11;;;;;;;2.55;1.10;;;17.00;99.90;;;;;;4982525;28;20125;-37
2022/09/08 10:25:13;;;;;;;2.67;1.52;;;17.10;99.90;;;;;;4981346;28;20034;-36
2022/09/08 10:28:18;;;;;;;2.85;1.30;;;17.10;99.90;;;;;;4984169;28;20082;-37
2022/09/08 10:31:08;;;;;;;2.35;1.20;;;17.20;99.90;;;;;;4982077;28;20050;-38
2022/09/08 10:33:39;;;;;;;5.72;1.20;;;17.20;99.90;;;;;;4985288;28;20128;-38
2022/09/08 10:36:10;;;;;;;1.90;1.10;;;17.30;99.90;;;;;;4984362;28;20050;-38
2022/09/08 10:39:22;;;;;;;1.60;1.10;;;17.40;99.90;;;;;;4984799;28;20140;-37
2022/09/08 10:42:26;;;;;;;3.35;1.50;;;17.40;99.90;;;;;;4955163;28;20073;-39
2022/09/08 10:45:00;;;;;;;3.15;1.50;;;17.40;99.90;;;;;;4982414;28;20046;-39
2022/09/08 10:47:25;;;;;;;2.83;1.30;;;17.40;99.90;;;;;;4987769;28;20046;-38
2022/09/08 10:50:09;;;;;;;4.53;1.80;;;17.40;99.90;;;;;;4986100;28;20048;-41
2022/09/08 10:53:03;;;;;;;4.00;1.52;;;17.50;99.90;;;;;;4985970;28;20516;-39
2022/09/08 10:56:06;;;;;;;2.95;1.80;;;17.50;99.90;;;;;;4984911;28;20042;-38
2022/09/08 10:58:32;;;;;;;4.07;1.95;;;17.50;99.90;;;;;;4982437;28;20047;-36
2022/09/08 11:01:29;;;;;;;4.70;2.70;;;17.60;99.90;;;;;;4980666;28;20042;-36
2022/09/08 11:04:32;;;;;;;5.35;2.67;;;17.60;99.90;;;;;;4969278;28;20073;-38
2022/09/08 11:07:32;;;;;;;7.38;3.60;;;17.70;99.90;;;;;;4984160;28;20042;-37
2022/09/08 11:10:25;;;;;;;7.45;3.67;;;17.80;99.90;;;;;;4983887;28;20113;-37
2022/09/08 11:13:29;;;;;;;5.93;4.15;;;17.80;99.90;;;;;;4966918;28;20487;-36
2022/09/08 11:15:57;;;;;;;7.13;4.47;;;17.80;99.90;;;;;;4987895;28;20046;-38
2022/09/08 11:18:29;;;;;;;7.90;4.55;;;17.90;99.90;;;;;;4987200;28;20510;-37
2022/09/08 11:21:32;;;;;;;8.88;4.28;;;18.00;99.90;;;;;;4988108;28;20038;-39
2022/09/08 11:24:24;;;;;;;6.75;5.00;;;18.10;99.90;;;;;;4952005;28;20440;-36
2022/09/08 11:27:12;;;;;;;7.85;5.20;;;18.20;99.90;;;;;;4971940;28;20042;-38
2022/09/08 11:29:38;;;;;;;6.53;4.80;;;18.20;99.90;;;;;;4968759;28;20069;-37
2022/09/08 11:32:16;;;;;;;8.60;5.05;;;18.30;99.90;;;;;;4986699;28;20176;-38
2022/09/08 11:35:14;;;;;;;7.57;5.20;;;18.30;99.90;;;;;;4989285;28;20042;-38
2022/09/08 11:37:57;;;;;;;6.10;4.50;;;18.40;99.90;;;;;;4956332;28;20065;-37
2022/09/08 11:40:47;;;;;;;7.03;5.00;;;18.50;99.90;;;;;;4983796;28;20116;-37
2022/09/08 11:43:37;;;;;;;7.55;5.43;;;18.60;99.90;;;;;;4989574;28;20526;-37
2022/09/08 11:46:42;;;;;;;6.15;4.85;;;18.70;99.90;;;;;;4986467;28;20129;-36
2022/09/08 11:49:26;;;;;;;7.47;5.03;;;18.70;99.90;;;;;;4966770;28;20559;-37
2022/09/08 11:51:58;;;;;;;6.55;4.30;;;18.80;99.90;;;;;;4986215;28;20511;-37
2022/09/08 11:54:36;;;;;;;9.30;4.63;;;18.80;99.90;;;;;;4986894;28;20101;-37
2022/09/08 11:57:26;;;;;;;8.60;5.28;;;18.90;99.90;;;;;;4988738;28;20049;-37
2022/09/08 12:00:12;;;;;;;6.75;5.03;;;18.90;99.90;;;;;;4984689;28;20042;-37
2022/09/08 12:02:40;;;;;;;7.63;5.63;;;18.90;99.90;;;;;;4997015;28;20060;-37
2022/09/08 12:05:42;;;;;;;7.50;5.07;;;19.10;99.90;;;;;;4986235;28;20039;-37
2022/09/08 12:08:19;;;;;;;6.90;4.80;;;19.40;99.90;;;;;;4901822;29;20399;-36
2022/09/08 12:11:29;;;;;;;7.97;5.00;;;19.50;99.90;;;;;;4992799;28;20515;-36
2022/09/08 12:13:57;;;;;;;6.47;4.63;;;19.60;99.90;;;;;;4943839;28;20413;-36
2022/09/08 12:16:31;;;;;;;8.05;5.15;;;19.80;99.90;;;;;;5000254;28;20056;-37
2022/09/08 12:19:29;;;;;;;6.22;4.93;;;19.90;99.90;;;;;;5007946;28;20491;-37
2022/09/08 12:22:09;;;;;;;7.80;4.90;;;20.10;99.90;;;;;;4975638;28;20054;-38
2022/09/08 12:24:57;;;;;;;7.30;4.45;;;20.20;99.90;;;;;;5005816;28;20052;-36
2022/09/08 12:27:56;;;;;;;7.80;5.10;;;20.50;99.90;;;;;;5005466;28;20477;-38
2022/09/08 12:30:28;;;;;;;9.70;4.57;;;20.60;99.90;;;;;;5006060;28;20748;-37
2022/09/08 12:33:07;;;;;;;7.32;4.70;;;20.50;99.90;;;;;;5011868;28;20040;-37
2022/09/08 12:35:46;;;;;;;6.95;5.05;;;20.40;99.90;;;;;;5009391;28;20080;-37
2022/09/08 12:38:26;;;;;;;7.63;4.93;;;20.30;99.90;;;;;;5010347;28;20050;-37
2022/09/08 12:41:17;;;;;;;7.07;4.47;;;20.30;99.90;;;;;;5003277;28;20045;-37
2022/09/08 12:43:43;;;;;;;8.18;5.38;;;20.30;99.90;;;;;;5002880;28;20129;-37
2022/09/08 12:46:27;;;;;;;7.20;5.13;;;20.30;99.90;;;;;;5009965;28;20034;-37
2022/09/08 12:49:29;;;;;;;6.47;4.18;;;20.30;99.90;;;;;;5009428;28;20037;-36
2022/09/08 12:52:02;;;;;;;7.68;4.72;;;20.30;99.90;;;;;;5009240;28;20563;-37
2022/09/08 12:54:54;;;;;;;5.20;4.30;;;20.20;99.90;;;;;;4990368;28;21892;-37
2022/09/08 12:57:29;;;;;;;7.22;4.13;;;20.10;99.90;;;;;;5009073;28;20477;-37
2022/09/08 13:00:11;;;;;;;5.78;4.45;;;19.90;99.90;;;;;;4993317;28;20452;-37
2022/09/08 13:02:56;;;;;;;6.20;3.97;;;19.80;99.90;;;;;;5006694;28;20108;-37
2022/09/08 13:05:40;;;;;;;8.10;5.45;;;19.90;99.90;;;;;;4987151;28;20042;-37
2022/09/08 13:08:16;;;;;;;10.40;5.00;;;20.20;99.90;;;;;;5003414;28;20121;-37
2022/09/08 13:10:46;;;;;;;8.57;4.30;;;20.90;99.90;;;;;;5007108;28;20084;-38
2022/09/08 13:13:43;;;;;;;6.35;4.20;;;21.40;99.90;;;;;;5005565;28;20058;-37
2022/09/08 13:16:14;;;;;;;4.97;3.65;;;21.80;99.90;;;;;;4988102;28;20077;-38
2022/09/08 13:19:02;;;;;;;6.20;3.65;;;22.00;99.90;;;;;;5007475;28;20128;-38
2022/09/08 13:21:39;;;;;;;5.47;3.15;;;22.30;99.90;;;;;;5005440;28;20068;-40
2022/09/08 13:24:16;;;;;;;5.70;3.88;;;22.10;99.90;;;;;;5004668;28;20053;-37
2022/09/08 13:26:52;;;;;;;6.43;4.38;;;22.00;99.90;;;;;;4991903;28;20504;-37
2022/09/08 13:29:38;;;;;;;6.72;4.28;;;22.00;99.90;;;;;;4992204;28;20034;-38
2022/09/08 13:32:15;;;;;;;5.45;3.53;;;21.70;99.90;;;;;;5006277;28;20045;-38
2022/09/08 13:35:01;;;;;;;6.65;3.92;;;21.60;99.90;;;;;;5003083;28;20111;-38
2022/09/08 13:37:41;;;;;;;6.80;3.75;;;21.60;99.90;;;;;;5005012;28;20041;-39